sensor_id;sensor_type;location;lat;lon;timestamp;P1;durP1;ratioP1;P2;durP2;ratioP2
15573;SDS011;7888;46.748;8.102;2024-02-28T00:01:49;9.30;;;8.40;;
15573;SDS011;7888;46.748;8.102;2024-02-28T00:04:15;9.23;;;8.33;;
15573;SDS011;7888;46.748;8.102;2024-02-28T00:06:41;9.80;;;8.80;;
15573;SDS011;7888;46.748;8.102;2024-02-28T00:09:07;8.77;;;7.87;;
15573;SDS011;7888;46.748;8.102;2024-02-28T00:11:34;9.83;;;8.83;;
15573;SDS011;7888;46.748;8.102;2024-02-28T00:14:00;8.13;;;7.30;;
15573;SDS011;7888;46.748;8.102;2024-02-28T00:16:27;8.90;;;8.00;;
15573;SDS011;7888;46.748;8.102;2024-02-28T00:18:53;9.77;;;8.77;;
15573;SDS011;7888;46.748;8.102;2024-02-28T00:21:19;9.07;;;8.07;;
15573;SDS011;7888;46.748;8.102;2024-02-28T00:23:45;10.77;;;9.17;;
15573;SDS011;7888;46.748;8.102;2024-02-28T00:26:11;10.20;;;9.20;;
15573;SDS011;7888;46.748;8.102;2024-02-28T00:28:37;9.27;;;8.37;;
15573;SDS011;7888;46.748;8.102;2024-02-28T00:31:03;9.57;;;8.67;;
15573;SDS011;7888;46.748;8.102;2024-02-28T00:33:29;8.97;;;8.07;;
15573;SDS011;7888;46.748;8.102;2024-02-28T00:35:54;9.23;;;8.33;;
15573;SDS011;7888;46.748;8.102;2024-02-28T00:38:20;10.53;;;8.83;;
15573;SDS011;7888;46.748;8.102;2024-02-28T00:40:47;9.47;;;8.47;;
15573;SDS011;7888;46.748;8.102;2024-02-28T00:43:12;9.57;;;8.67;;
15573;SDS011;7888;46.748;8.102;2024-02-28T00:45:38;9.50;;;8.50;;
15573;SDS011;7888;46.748;8.102;2024-02-28T00:48:04;10.00;;;9.07;;
15573;SDS011;7888;46.748;8.102;2024-02-28T00:50:30;10.47;;;9.47;;
15573;SDS011;7888;46.748;8.102;2024-02-28T00:52:56;11.33;;;9.73;;
15573;SDS011;7888;46.748;8.102;2024-02-28T00:55:22;9.73;;;8.73;;
15573;SDS011;7888;46.748;8.102;2024-02-28T00:57:47;9.80;;;8.83;;
15573;SDS011;7888;46.748;8.102;2024-02-28T01:00:13;10.37;;;9.37;;
15573;SDS011;7888;46.748;8.102;2024-02-28T01:02:40;10.47;;;9.43;;
15573;SDS011;7888;46.748;8.102;2024-02-28T01:05:08;10.87;;;9.07;;
15573;SDS011;7888;46.748;8.102;2024-02-28T01:07:34;10.80;;;9.77;;
15573;SDS011;7888;46.748;8.102;2024-02-28T01:10:00;10.17;;;9.23;;
15573;SDS011;7888;46.748;8.102;2024-02-28T01:12:26;11.03;;;9.93;;
15573;SDS011;7888;46.748;8.102;2024-02-28T01:14:51;10.97;;;9.53;;
15573;SDS011;7888;46.748;8.102;2024-02-28T01:17:17;10.27;;;9.27;;
15573;SDS011;7888;46.748;8.102;2024-02-28T01:19:43;9.80;;;8.80;;
15573;SDS011;7888;46.748;8.102;2024-02-28T01:22:08;11.47;;;10.13;;
15573;SDS011;7888;46.748;8.102;2024-02-28T01:24:34;10.80;;;9.77;;
15573;SDS011;7888;46.748;8.102;2024-02-28T01:27:00;10.70;;;9.70;;
15573;SDS011;7888;46.748;8.102;2024-02-28T01:29:26;12.03;;;9.73;;
15573;SDS011;7888;46.748;8.102;2024-02-28T01:31:51;11.30;;;10.10;;
15573;SDS011;7888;46.748;8.102;2024-02-28T01:34:17;10.90;;;9.83;;
15573;SDS011;7888;46.748;8.102;2024-02-28T01:36:43;11.07;;;9.87;;
15573;SDS011;7888;46.748;8.102;2024-02-28T01:39:09;12.30;;;11.10;;
15573;SDS011;7888;46.748;8.102;2024-02-28T01:41:35;12.77;;;10.57;;
15573;SDS011;7888;46.748;8.102;2024-02-28T01:44:00;11.47;;;10.40;;
15573;SDS011;7888;46.748;8.102;2024-02-28T01:46:27;11.00;;;9.90;;
15573;SDS011;7888;46.748;8.102;2024-02-28T01:48:54;10.57;;;9.47;;
15573;SDS011;7888;46.748;8.102;2024-02-28T01:51:22;10.27;;;9.13;;
15573;SDS011;7888;46.748;8.102;2024-02-28T01:53:52;10.23;;;9.10;;
15573;SDS011;7888;46.748;8.102;2024-02-28T01:56:19;11.07;;;9.97;;
15573;SDS011;7888;46.748;8.102;2024-02-28T01:58:47;10.93;;;9.93;;
15573;SDS011;7888;46.748;8.102;2024-02-28T02:01:15;10.73;;;9.63;;
15573;SDS011;7888;46.748;8.102;2024-02-28T02:03:45;9.93;;;8.83;;
15573;SDS011;7888;46.748;8.102;2024-02-28T02:06:11;11.00;;;9.90;;
15573;SDS011;7888;46.748;8.102;2024-02-28T02:08:37;12.87;;;11.57;;
15573;SDS011;7888;46.748;8.102;2024-02-28T02:11:05;11.73;;;10.53;;
15573;SDS011;7888;46.748;8.102;2024-02-28T02:13:31;13.00;;;11.70;;
15573;SDS011;7888;46.748;8.102;2024-02-28T02:15:57;12.80;;;11.43;;
15573;SDS011;7888;46.748;8.102;2024-02-28T02:18:23;12.30;;;11.10;;
15573;SDS011;7888;46.748;8.102;2024-02-28T02:20:58;12.83;;;11.53;;
15573;SDS011;7888;46.748;8.102;2024-02-28T02:23:31;11.30;;;10.10;;
15573;SDS011;7888;46.748;8.102;2024-02-28T02:25:57;11.70;;;10.37;;
15573;SDS011;7888;46.748;8.102;2024-02-28T02:28:23;12.10;;;10.20;;
15573;SDS011;7888;46.748;8.102;2024-02-28T02:30:49;11.67;;;10.57;;
15573;SDS011;7888;46.748;8.102;2024-02-28T02:33:14;13.53;;;12.13;;
15573;SDS011;7888;46.748;8.102;2024-02-28T02:35:40;15.37;;;11.43;;
15573;SDS011;7888;46.748;8.102;2024-02-28T02:38:06;12.20;;;10.93;;
15573;SDS011;7888;46.748;8.102;2024-02-28T02:40:31;12.37;;;10.90;;
15573;SDS011;7888;46.748;8.102;2024-02-28T02:42:57;13.30;;;11.90;;
15573;SDS011;7888;46.748;8.102;2024-02-28T02:45:23;13.20;;;11.90;;
15573;SDS011;7888;46.748;8.102;2024-02-28T02:47:49;13.60;;;12.20;;
15573;SDS011;7888;46.748;8.102;2024-02-28T02:50:15;12.13;;;10.60;;
15573;SDS011;7888;46.748;8.102;2024-02-28T02:52:40;13.00;;;11.60;;
15573;SDS011;7888;46.748;8.102;2024-02-28T02:55:06;11.60;;;10.47;;
15573;SDS011;7888;46.748;8.102;2024-02-28T02:57:32;11.47;;;10.27;;
15573;SDS011;7888;46.748;8.102;2024-02-28T02:59:58;10.50;;;9.23;;
15573;SDS011;7888;46.748;8.102;2024-02-28T03:02:24;11.67;;;9.97;;
15573;SDS011;7888;46.748;8.102;2024-02-28T03:04:50;11.27;;;9.80;;
15573;SDS011;7888;46.748;8.102;2024-02-28T03:07:15;10.77;;;9.67;;
15573;SDS011;7888;46.748;8.102;2024-02-28T03:09:41;11.90;;;9.57;;
15573;SDS011;7888;46.748;8.102;2024-02-28T03:12:07;12.43;;;11.13;;
15573;SDS011;7888;46.748;8.102;2024-02-28T03:14:34;13.30;;;12.07;;
15573;SDS011;7888;46.748;8.102;2024-02-28T03:17:00;13.80;;;12.40;;
15573;SDS011;7888;46.748;8.102;2024-02-28T03:19:26;12.60;;;11.30;;
15573;SDS011;7888;46.748;8.102;2024-02-28T03:21:52;14.47;;;12.17;;
15573;SDS011;7888;46.748;8.102;2024-02-28T03:24:18;14.90;;;11.67;;
15573;SDS011;7888;46.748;8.102;2024-02-28T03:26:44;13.50;;;12.10;;
15573;SDS011;7888;46.748;8.102;2024-02-28T03:29:10;12.67;;;11.37;;
15573;SDS011;7888;46.748;8.102;2024-02-28T03:31:36;12.80;;;11.50;;
15573;SDS011;7888;46.748;8.102;2024-02-28T03:34:01;13.77;;;12.37;;
15573;SDS011;7888;46.748;8.102;2024-02-28T03:36:28;12.57;;;11.27;;
15573;SDS011;7888;46.748;8.102;2024-02-28T03:38:54;12.50;;;11.20;;
15573;SDS011;7888;46.748;8.102;2024-02-28T03:41:20;11.07;;;9.87;;
15573;SDS011;7888;46.748;8.102;2024-02-28T03:43:47;12.03;;;10.80;;
15573;SDS011;7888;46.748;8.102;2024-02-28T03:46:12;11.63;;;10.43;;
15573;SDS011;7888;46.748;8.102;2024-02-28T03:48:38;11.07;;;9.97;;
15573;SDS011;7888;46.748;8.102;2024-02-28T03:51:04;13.87;;;11.53;;
15573;SDS011;7888;46.748;8.102;2024-02-28T03:53:30;12.37;;;11.03;;
15573;SDS011;7888;46.748;8.102;2024-02-28T03:55:56;13.40;;;12.00;;
15573;SDS011;7888;46.748;8.102;2024-02-28T03:58:21;11.97;;;10.77;;
15573;SDS011;7888;46.748;8.102;2024-02-28T04:00:47;11.47;;;10.33;;
15573;SDS011;7888;46.748;8.102;2024-02-28T04:03:13;12.27;;;11.07;;
15573;SDS011;7888;46.748;8.102;2024-02-28T04:05:39;11.67;;;10.47;;
15573;SDS011;7888;46.748;8.102;2024-02-28T04:08:06;13.10;;;11.07;;
15573;SDS011;7888;46.748;8.102;2024-02-28T04:10:32;10.90;;;9.77;;
15573;SDS011;7888;46.748;8.102;2024-02-28T04:12:58;11.73;;;10.57;;
15573;SDS011;7888;46.748;8.102;2024-02-28T04:15:24;11.77;;;10.60;;
15573;SDS011;7888;46.748;8.102;2024-02-28T04:17:51;11.40;;;9.93;;
15573;SDS011;7888;46.748;8.102;2024-02-28T04:20:17;12.40;;;11.20;;
15573;SDS011;7888;46.748;8.102;2024-02-28T04:22:43;12.63;;;11.37;;
15573;SDS011;7888;46.748;8.102;2024-02-28T04:25:09;13.00;;;11.60;;
15573;SDS011;7888;46.748;8.102;2024-02-28T04:27:35;12.57;;;11.20;;
15573;SDS011;7888;46.748;8.102;2024-02-28T04:30:02;14.10;;;12.57;;
15573;SDS011;7888;46.748;8.102;2024-02-28T04:32:29;12.93;;;11.17;;
15573;SDS011;7888;46.748;8.102;2024-02-28T04:34:55;12.23;;;11.03;;
15573;SDS011;7888;46.748;8.102;2024-02-28T04:37:20;13.07;;;10.67;;
15573;SDS011;7888;46.748;8.102;2024-02-28T04:39:47;11.80;;;10.60;;
15573;SDS011;7888;46.748;8.102;2024-02-28T04:42:13;12.43;;;11.13;;
15573;SDS011;7888;46.748;8.102;2024-02-28T04:44:39;12.63;;;11.23;;
15573;SDS011;7888;46.748;8.102;2024-02-28T04:47:05;15.20;;;11.90;;
15573;SDS011;7888;46.748;8.102;2024-02-28T04:49:31;13.60;;;12.17;;
15573;SDS011;7888;46.748;8.102;2024-02-28T04:51:56;13.27;;;11.90;;
15573;SDS011;7888;46.748;8.102;2024-02-28T04:54:23;13.87;;;12.43;;
15573;SDS011;7888;46.748;8.102;2024-02-28T04:56:49;13.30;;;11.90;;
15573;SDS011;7888;46.748;8.102;2024-02-28T04:59:16;14.27;;;12.77;;
15573;SDS011;7888;46.748;8.102;2024-02-28T05:01:42;12.27;;;10.97;;
15573;SDS011;7888;46.748;8.102;2024-02-28T05:04:08;15.50;;;11.37;;
15573;SDS011;7888;46.748;8.102;2024-02-28T05:06:35;13.87;;;12.43;;
15573;SDS011;7888;46.748;8.102;2024-02-28T05:09:01;14.87;;;13.37;;
15573;SDS011;7888;46.748;8.102;2024-02-28T05:11:27;14.27;;;12.37;;
15573;SDS011;7888;46.748;8.102;2024-02-28T05:13:53;14.30;;;12.37;;
15573;SDS011;7888;46.748;8.102;2024-02-28T05:16:19;12.50;;;11.03;;
15573;SDS011;7888;46.748;8.102;2024-02-28T05:18:45;12.57;;;10.77;;
15573;SDS011;7888;46.748;8.102;2024-02-28T05:21:12;13.97;;;12.47;;
15573;SDS011;7888;46.748;8.102;2024-02-28T05:23:39;12.10;;;10.80;;
15573;SDS011;7888;46.748;8.102;2024-02-28T05:26:05;13.53;;;11.40;;
15573;SDS011;7888;46.748;8.102;2024-02-28T05:28:35;12.13;;;10.83;;
15573;SDS011;7888;46.748;8.102;2024-02-28T05:31:23;13.07;;;11.77;;
15573;SDS011;7888;46.748;8.102;2024-02-28T05:33:56;14.50;;;12.43;;
15573;SDS011;7888;46.748;8.102;2024-02-28T05:36:23;12.87;;;11.57;;
15573;SDS011;7888;46.748;8.102;2024-02-28T05:38:54;13.53;;;11.77;;
15573;SDS011;7888;46.748;8.102;2024-02-28T05:41:21;13.93;;;12.53;;
15573;SDS011;7888;46.748;8.102;2024-02-28T05:43:48;13.67;;;12.23;;
15573;SDS011;7888;46.748;8.102;2024-02-28T05:46:15;12.50;;;11.20;;
15573;SDS011;7888;46.748;8.102;2024-02-28T05:48:42;12.33;;;11.03;;
15573;SDS011;7888;46.748;8.102;2024-02-28T05:51:09;13.53;;;12.23;;
15573;SDS011;7888;46.748;8.102;2024-02-28T05:53:36;14.17;;;12.73;;
15573;SDS011;7888;46.748;8.102;2024-02-28T05:56:03;15.30;;;13.30;;
15573;SDS011;7888;46.748;8.102;2024-02-28T05:58:38;14.97;;;13.43;;
15573;SDS011;7888;46.748;8.102;2024-02-28T06:01:04;13.53;;;12.13;;
15573;SDS011;7888;46.748;8.102;2024-02-28T06:03:32;14.20;;;12.70;;
15573;SDS011;7888;46.748;8.102;2024-02-28T06:05:58;15.73;;;13.37;;
15573;SDS011;7888;46.748;8.102;2024-02-28T06:08:24;16.13;;;13.37;;
15573;SDS011;7888;46.748;8.102;2024-02-28T06:10:49;14.97;;;12.97;;
15573;SDS011;7888;46.748;8.102;2024-02-28T06:13:17;14.53;;;12.93;;
15573;SDS011;7888;46.748;8.102;2024-02-28T06:15:43;15.03;;;13.50;;
15573;SDS011;7888;46.748;8.102;2024-02-28T06:18:09;13.80;;;12.10;;
15573;SDS011;7888;46.748;8.102;2024-02-28T06:20:35;14.77;;;13.17;;
15573;SDS011;7888;46.748;8.102;2024-02-28T06:23:02;13.27;;;11.97;;
15573;SDS011;7888;46.748;8.102;2024-02-28T06:25:28;14.30;;;12.43;;
15573;SDS011;7888;46.748;8.102;2024-02-28T06:27:54;13.50;;;12.13;;
15573;SDS011;7888;46.748;8.102;2024-02-28T06:30:20;14.77;;;13.20;;
15573;SDS011;7888;46.748;8.102;2024-02-28T06:32:45;14.63;;;12.43;;
15573;SDS011;7888;46.748;8.102;2024-02-28T06:35:11;14.83;;;13.23;;
15573;SDS011;7888;46.748;8.102;2024-02-28T06:37:37;14.37;;;12.87;;
15573;SDS011;7888;46.748;8.102;2024-02-28T06:40:03;12.30;;;11.00;;
15573;SDS011;7888;46.748;8.102;2024-02-28T06:42:29;13.37;;;11.97;;
15573;SDS011;7888;46.748;8.102;2024-02-28T06:44:55;10.70;;;9.60;;
15573;SDS011;7888;46.748;8.102;2024-02-28T06:47:21;11.37;;;10.13;;
15573;SDS011;7888;46.748;8.102;2024-02-28T06:49:46;11.33;;;10.23;;
15573;SDS011;7888;46.748;8.102;2024-02-28T06:52:13;11.57;;;10.47;;
15573;SDS011;7888;46.748;8.102;2024-02-28T06:54:39;12.07;;;10.87;;
15573;SDS011;7888;46.748;8.102;2024-02-28T06:57:04;11.47;;;9.77;;
15573;SDS011;7888;46.748;8.102;2024-02-28T06:59:30;11.73;;;10.50;;
15573;SDS011;7888;46.748;8.102;2024-02-28T07:01:56;12.03;;;10.73;;
15573;SDS011;7888;46.748;8.102;2024-02-28T07:04:22;13.30;;;11.67;;
15573;SDS011;7888;46.748;8.102;2024-02-28T07:06:48;13.10;;;11.30;;
15573;SDS011;7888;46.748;8.102;2024-02-28T07:09:14;11.37;;;9.77;;
15573;SDS011;7888;46.748;8.102;2024-02-28T07:11:40;10.53;;;9.43;;
15573;SDS011;7888;46.748;8.102;2024-02-28T07:14:06;10.73;;;9.37;;
15573;SDS011;7888;46.748;8.102;2024-02-28T07:16:32;12.53;;;11.23;;
15573;SDS011;7888;46.748;8.102;2024-02-28T07:18:59;13.30;;;11.93;;
15573;SDS011;7888;46.748;8.102;2024-02-28T07:21:28;13.33;;;11.93;;
15573;SDS011;7888;46.748;8.102;2024-02-28T07:23:55;11.13;;;10.00;;
15573;SDS011;7888;46.748;8.102;2024-02-28T07:26:21;11.80;;;10.57;;
15573;SDS011;7888;46.748;8.102;2024-02-28T07:28:47;12.97;;;11.67;;
15573;SDS011;7888;46.748;8.102;2024-02-28T07:31:14;12.43;;;11.13;;
15573;SDS011;7888;46.748;8.102;2024-02-28T07:33:44;13.53;;;12.13;;
15573;SDS011;7888;46.748;8.102;2024-02-28T07:36:11;14.53;;;12.87;;
15573;SDS011;7888;46.748;8.102;2024-02-28T07:38:37;14.93;;;13.40;;
15573;SDS011;7888;46.748;8.102;2024-02-28T07:41:03;14.27;;;12.77;;
15573;SDS011;7888;46.748;8.102;2024-02-28T07:43:29;13.93;;;12.47;;
15573;SDS011;7888;46.748;8.102;2024-02-28T07:46:01;16.60;;;14.87;;
15573;SDS011;7888;46.748;8.102;2024-02-28T07:48:28;15.27;;;13.67;;
15573;SDS011;7888;46.748;8.102;2024-02-28T07:50:53;14.00;;;12.60;;
15573;SDS011;7888;46.748;8.102;2024-02-28T07:53:19;12.57;;;11.27;;
15573;SDS011;7888;46.748;8.102;2024-02-28T07:55:45;13.50;;;12.07;;
15573;SDS011;7888;46.748;8.102;2024-02-28T07:58:10;14.30;;;12.77;;
15573;SDS011;7888;46.748;8.102;2024-02-28T08:00:36;14.27;;;12.87;;
15573;SDS011;7888;46.748;8.102;2024-02-28T08:03:02;13.83;;;12.43;;
15573;SDS011;7888;46.748;8.102;2024-02-28T08:05:28;13.73;;;11.83;;
15573;SDS011;7888;46.748;8.102;2024-02-28T08:07:54;13.73;;;12.40;;
15573;SDS011;7888;46.748;8.102;2024-02-28T08:10:20;13.73;;;12.10;;
15573;SDS011;7888;46.748;8.102;2024-02-28T08:12:45;13.77;;;12.37;;
15573;SDS011;7888;46.748;8.102;2024-02-28T08:15:11;12.50;;;11.20;;
15573;SDS011;7888;46.748;8.102;2024-02-28T08:17:37;15.73;;;12.60;;
15573;SDS011;7888;46.748;8.102;2024-02-28T08:20:03;13.97;;;11.70;;
15573;SDS011;7888;46.748;8.102;2024-02-28T08:22:31;13.50;;;11.97;;
15573;SDS011;7888;46.748;8.102;2024-02-28T08:24:56;13.00;;;11.60;;
15573;SDS011;7888;46.748;8.102;2024-02-28T08:27:22;14.20;;;12.70;;
15573;SDS011;7888;46.748;8.102;2024-02-28T08:29:49;14.10;;;12.33;;
15573;SDS011;7888;46.748;8.102;2024-02-28T08:32:15;14.20;;;12.80;;
15573;SDS011;7888;46.748;8.102;2024-02-28T08:34:43;13.60;;;12.20;;
15573;SDS011;7888;46.748;8.102;2024-02-28T08:37:13;13.80;;;12.33;;
15573;SDS011;7888;46.748;8.102;2024-02-28T08:39:38;13.50;;;12.00;;
15573;SDS011;7888;46.748;8.102;2024-02-28T08:42:05;13.67;;;12.30;;
15573;SDS011;7888;46.748;8.102;2024-02-28T08:44:31;13.73;;;12.10;;
15573;SDS011;7888;46.748;8.102;2024-02-28T08:46:57;15.10;;;13.17;;
15573;SDS011;7888;46.748;8.102;2024-02-28T08:49:22;13.57;;;12.13;;
15573;SDS011;7888;46.748;8.102;2024-02-28T08:51:48;12.63;;;10.77;;
15573;SDS011;7888;46.748;8.102;2024-02-28T08:54:14;13.43;;;12.03;;
15573;SDS011;7888;46.748;8.102;2024-02-28T08:56:39;13.07;;;11.67;;
15573;SDS011;7888;46.748;8.102;2024-02-28T08:59:05;13.23;;;11.30;;
15573;SDS011;7888;46.748;8.102;2024-02-28T09:01:31;14.00;;;12.60;;
15573;SDS011;7888;46.748;8.102;2024-02-28T09:03:59;13.43;;;11.87;;
15573;SDS011;7888;46.748;8.102;2024-02-28T09:06:25;14.23;;;12.73;;
15573;SDS011;7888;46.748;8.102;2024-02-28T09:08:52;14.33;;;12.83;;
15573;SDS011;7888;46.748;8.102;2024-02-28T09:11:17;15.13;;;13.50;;
15573;SDS011;7888;46.748;8.102;2024-02-28T09:13:43;14.17;;;12.67;;
15573;SDS011;7888;46.748;8.102;2024-02-28T09:16:09;13.77;;;12.27;;
15573;SDS011;7888;46.748;8.102;2024-02-28T09:18:35;14.03;;;12.53;;
15573;SDS011;7888;46.748;8.102;2024-02-28T09:21:00;12.90;;;11.60;;
15573;SDS011;7888;46.748;8.102;2024-02-28T09:23:26;13.23;;;11.63;;
15573;SDS011;7888;46.748;8.102;2024-02-28T09:25:52;13.73;;;12.37;;
15573;SDS011;7888;46.748;8.102;2024-02-28T09:28:17;13.57;;;11.93;;
15573;SDS011;7888;46.748;8.102;2024-02-28T09:30:43;15.13;;;12.40;;
15573;SDS011;7888;46.748;8.102;2024-02-28T09:33:12;13.60;;;12.20;;
15573;SDS011;7888;46.748;8.102;2024-02-28T09:35:38;13.53;;;12.13;;
15573;SDS011;7888;46.748;8.102;2024-02-28T09:38:04;13.13;;;11.70;;
15573;SDS011;7888;46.748;8.102;2024-02-28T09:40:30;13.70;;;12.30;;
15573;SDS011;7888;46.748;8.102;2024-02-28T09:43:02;13.13;;;11.73;;
15573;SDS011;7888;46.748;8.102;2024-02-28T09:45:32;14.97;;;12.13;;
15573;SDS011;7888;46.748;8.102;2024-02-28T09:48:00;11.70;;;10.47;;
15573;SDS011;7888;46.748;8.102;2024-02-28T09:50:26;12.27;;;10.97;;
15573;SDS011;7888;46.748;8.102;2024-02-28T09:52:53;13.70;;;11.27;;
15573;SDS011;7888;46.748;8.102;2024-02-28T09:55:19;13.63;;;11.90;;
15573;SDS011;7888;46.748;8.102;2024-02-28T09:57:48;13.77;;;11.80;;
15573;SDS011;7888;46.748;8.102;2024-02-28T10:00:18;13.20;;;11.80;;
15573;SDS011;7888;46.748;8.102;2024-02-28T10:02:46;12.80;;;11.50;;
15573;SDS011;7888;46.748;8.102;2024-02-28T10:05:15;12.83;;;11.53;;
15573;SDS011;7888;46.748;8.102;2024-02-28T10:07:44;13.07;;;11.77;;
15573;SDS011;7888;46.748;8.102;2024-02-28T10:10:11;14.73;;;11.60;;
15573;SDS011;7888;46.748;8.102;2024-02-28T10:12:40;13.60;;;11.70;;
15573;SDS011;7888;46.748;8.102;2024-02-28T10:15:07;13.07;;;11.30;;
15573;SDS011;7888;46.748;8.102;2024-02-28T10:17:35;11.23;;;10.07;;
15573;SDS011;7888;46.748;8.102;2024-02-28T10:20:01;11.10;;;9.50;;
15573;SDS011;7888;46.748;8.102;2024-02-28T10:22:36;11.97;;;9.13;;
15573;SDS011;7888;46.748;8.102;2024-02-28T10:25:02;9.30;;;7.53;;
15573;SDS011;7888;46.748;8.102;2024-02-28T10:27:31;9.20;;;8.30;;
15573;SDS011;7888;46.748;8.102;2024-02-28T10:29:59;9.57;;;8.57;;
15573;SDS011;7888;46.748;8.102;2024-02-28T10:32:29;9.53;;;7.63;;
15573;SDS011;7888;46.748;8.102;2024-02-28T10:35:00;9.10;;;7.67;;
15573;SDS011;7888;46.748;8.102;2024-02-28T10:37:27;9.17;;;8.23;;
15573;SDS011;7888;46.748;8.102;2024-02-28T10:39:58;9.60;;;8.40;;
15573;SDS011;7888;46.748;8.102;2024-02-28T10:42:27;9.93;;;8.63;;
15573;SDS011;7888;46.748;8.102;2024-02-28T10:44:55;10.40;;;8.77;;
15573;SDS011;7888;46.748;8.102;2024-02-28T10:47:23;9.97;;;8.53;;
15573;SDS011;7888;46.748;8.102;2024-02-28T10:49:52;11.57;;;9.90;;
15573;SDS011;7888;46.748;8.102;2024-02-28T10:52:18;10.30;;;9.20;;
15573;SDS011;7888;46.748;8.102;2024-02-28T10:54:48;11.27;;;9.57;;
15573;SDS011;7888;46.748;8.102;2024-02-28T10:57:21;9.73;;;8.73;;
15573;SDS011;7888;46.748;8.102;2024-02-28T10:59:50;8.83;;;7.77;;
15573;SDS011;7888;46.748;8.102;2024-02-28T11:02:16;8.87;;;7.97;;
15573;SDS011;7888;46.748;8.102;2024-02-28T11:04:42;10.40;;;8.60;;
15573;SDS011;7888;46.748;8.102;2024-02-28T11:07:08;8.50;;;7.30;;
15573;SDS011;7888;46.748;8.102;2024-02-28T11:09:34;8.17;;;7.37;;
15573;SDS011;7888;46.748;8.102;2024-02-28T11:12:00;8.87;;;7.97;;
15573;SDS011;7888;46.748;8.102;2024-02-28T11:14:29;9.03;;;7.30;;
15573;SDS011;7888;46.748;8.102;2024-02-28T11:17:02;8.57;;;7.63;;
15573;SDS011;7888;46.748;8.102;2024-02-28T11:19:29;8.50;;;7.17;;
15573;SDS011;7888;46.748;8.102;2024-02-28T11:21:58;8.03;;;7.20;;
15573;SDS011;7888;46.748;8.102;2024-02-28T11:24:28;8.03;;;7.10;;
15573;SDS011;7888;46.748;8.102;2024-02-28T11:26:59;7.93;;;7.13;;
15573;SDS011;7888;46.748;8.102;2024-02-28T11:29:26;8.70;;;7.80;;
15573;SDS011;7888;46.748;8.102;2024-02-28T11:31:56;8.67;;;7.17;;
15573;SDS011;7888;46.748;8.102;2024-02-28T11:34:22;7.53;;;6.43;;
15573;SDS011;7888;46.748;8.102;2024-02-28T11:36:48;8.03;;;7.20;;
15573;SDS011;7888;46.748;8.102;2024-02-28T11:39:15;8.57;;;7.63;;
15573;SDS011;7888;46.748;8.102;2024-02-28T11:41:43;7.93;;;7.13;;
15573;SDS011;7888;46.748;8.102;2024-02-28T11:44:11;8.00;;;7.07;;
15573;SDS011;7888;46.748;8.102;2024-02-28T11:46:42;8.50;;;6.83;;
15573;SDS011;7888;46.748;8.102;2024-02-28T11:49:12;7.27;;;6.50;;
15573;SDS011;7888;46.748;8.102;2024-02-28T11:51:42;8.10;;;7.17;;
15573;SDS011;7888;46.748;8.102;2024-02-28T11:54:09;7.07;;;6.37;;
15573;SDS011;7888;46.748;8.102;2024-02-28T11:56:38;7.20;;;6.50;;
15573;SDS011;7888;46.748;8.102;2024-02-28T11:59:05;8.17;;;6.27;;
15573;SDS011;7888;46.748;8.102;2024-02-28T12:01:36;9.03;;;8.03;;
15573;SDS011;7888;46.748;8.102;2024-02-28T12:04:05;10.17;;;9.07;;
15573;SDS011;7888;46.748;8.102;2024-02-28T12:06:34;9.90;;;8.53;;
15573;SDS011;7888;46.748;8.102;2024-02-28T12:09:02;10.63;;;8.03;;
15573;SDS011;7888;46.748;8.102;2024-02-28T12:11:40;9.07;;;7.97;;
15573;SDS011;7888;46.748;8.102;2024-02-28T12:14:06;9.27;;;8.07;;
15573;SDS011;7888;46.748;8.102;2024-02-28T12:16:35;11.53;;;9.33;;
15573;SDS011;7888;46.748;8.102;2024-02-28T12:19:08;10.50;;;8.93;;
15573;SDS011;7888;46.748;8.102;2024-02-28T12:21:38;9.57;;;8.40;;
15573;SDS011;7888;46.748;8.102;2024-02-28T12:24:06;10.00;;;8.63;;
15573;SDS011;7888;46.748;8.102;2024-02-28T12:26:36;9.50;;;8.60;;
15573;SDS011;7888;46.748;8.102;2024-02-28T12:29:03;10.57;;;8.97;;
15573;SDS011;7888;46.748;8.102;2024-02-28T12:31:29;9.83;;;8.83;;
15573;SDS011;7888;46.748;8.102;2024-02-28T12:33:55;9.83;;;8.50;;
15573;SDS011;7888;46.748;8.102;2024-02-28T12:36:21;10.13;;;8.47;;
15573;SDS011;7888;46.748;8.102;2024-02-28T12:38:47;11.07;;;8.93;;
15573;SDS011;7888;46.748;8.102;2024-02-28T12:41:13;9.47;;;8.23;;
15573;SDS011;7888;46.748;8.102;2024-02-28T12:43:40;9.77;;;8.70;;
15573;SDS011;7888;46.748;8.102;2024-02-28T12:46:06;9.57;;;8.37;;
15573;SDS011;7888;46.748;8.102;2024-02-28T12:48:41;10.80;;;9.00;;
15573;SDS011;7888;46.748;8.102;2024-02-28T12:51:08;9.60;;;8.50;;
15573;SDS011;7888;46.748;8.102;2024-02-28T12:53:38;9.53;;;8.53;;
15573;SDS011;7888;46.748;8.102;2024-02-28T12:56:05;9.87;;;8.83;;
15573;SDS011;7888;46.748;8.102;2024-02-28T12:58:31;10.30;;;9.20;;
15573;SDS011;7888;46.748;8.102;2024-02-28T13:00:57;11.73;;;10.03;;
15573;SDS011;7888;46.748;8.102;2024-02-28T13:03:22;11.33;;;10.10;;
15573;SDS011;7888;46.748;8.102;2024-02-28T13:05:48;11.17;;;8.97;;
15573;SDS011;7888;46.748;8.102;2024-02-28T13:08:14;11.20;;;9.77;;
15573;SDS011;7888;46.748;8.102;2024-02-28T13:10:40;10.80;;;9.33;;
15573;SDS011;7888;46.748;8.102;2024-02-28T13:13:06;10.17;;;9.07;;
15573;SDS011;7888;46.748;8.102;2024-02-28T13:15:33;11.53;;;9.40;;
15573;SDS011;7888;46.748;8.102;2024-02-28T13:17:59;10.43;;;9.27;;
15573;SDS011;7888;46.748;8.102;2024-02-28T13:20:27;11.90;;;10.10;;
15573;SDS011;7888;46.748;8.102;2024-02-28T13:22:52;12.77;;;8.97;;
15573;SDS011;7888;46.748;8.102;2024-02-28T13:25:18;11.23;;;9.27;;
15573;SDS011;7888;46.748;8.102;2024-02-28T13:27:45;12.47;;;10.43;;
15573;SDS011;7888;46.748;8.102;2024-02-28T13:30:12;10.30;;;9.20;;
15573;SDS011;7888;46.748;8.102;2024-02-28T13:32:40;10.47;;;9.20;;
15573;SDS011;7888;46.748;8.102;2024-02-28T13:35:06;9.60;;;8.60;;
15573;SDS011;7888;46.748;8.102;2024-02-28T13:37:32;10.10;;;8.70;;
15573;SDS011;7888;46.748;8.102;2024-02-28T13:39:58;10.43;;;9.33;;
15573;SDS011;7888;46.748;8.102;2024-02-28T13:42:24;12.03;;;9.83;;
15573;SDS011;7888;46.748;8.102;2024-02-28T13:44:50;11.80;;;10.17;;
15573;SDS011;7888;46.748;8.102;2024-02-28T13:47:16;11.33;;;10.13;;
15573;SDS011;7888;46.748;8.102;2024-02-28T13:49:42;10.87;;;9.20;;
15573;SDS011;7888;46.748;8.102;2024-02-28T13:52:08;10.83;;;9.70;;
15573;SDS011;7888;46.748;8.102;2024-02-28T13:54:34;9.73;;;8.73;;
15573;SDS011;7888;46.748;8.102;2024-02-28T13:57:00;10.90;;;8.80;;
15573;SDS011;7888;46.748;8.102;2024-02-28T13:59:27;10.10;;;8.70;;
15573;SDS011;7888;46.748;8.102;2024-02-28T14:01:52;10.17;;;8.90;;
15573;SDS011;7888;46.748;8.102;2024-02-28T14:04:18;9.23;;;8.13;;
15573;SDS011;7888;46.748;8.102;2024-02-28T14:06:44;9.77;;;8.20;;
15573;SDS011;7888;46.748;8.102;2024-02-28T14:09:11;11.03;;;9.53;;
15573;SDS011;7888;46.748;8.102;2024-02-28T14:11:37;11.27;;;8.83;;
15573;SDS011;7888;46.748;8.102;2024-02-28T14:14:02;9.90;;;8.60;;
15573;SDS011;7888;46.748;8.102;2024-02-28T14:16:29;10.90;;;9.03;;
15573;SDS011;7888;46.748;8.102;2024-02-28T14:18:58;11.10;;;8.77;;
15573;SDS011;7888;46.748;8.102;2024-02-28T14:21:25;10.47;;;9.07;;
15573;SDS011;7888;46.748;8.102;2024-02-28T14:23:50;10.23;;;9.13;;
15573;SDS011;7888;46.748;8.102;2024-02-28T14:26:17;10.23;;;9.03;;
15573;SDS011;7888;46.748;8.102;2024-02-28T14:28:43;10.57;;;9.27;;
15573;SDS011;7888;46.748;8.102;2024-02-28T14:31:09;10.20;;;9.10;;
15573;SDS011;7888;46.748;8.102;2024-02-28T14:33:36;10.23;;;9.17;;
15573;SDS011;7888;46.748;8.102;2024-02-28T14:36:02;11.63;;;9.10;;
15573;SDS011;7888;46.748;8.102;2024-02-28T14:38:30;11.83;;;9.27;;
15573;SDS011;7888;46.748;8.102;2024-02-28T14:40:56;10.47;;;8.83;;